Time;durP1;ratioP1;P1;durP2;ratioP2;P2;SDS_P1;SDS_P2;PMS_P1;PMS_P2;Temp;Humidity;BMP_temperature;BMP_pressure;BME280_temperature;BME280_humidity;BME280_pressure;Samples;Min_cycle;Max_cycle;Signal;HPM_P1;HPM_P2
2022/03/08 00:01:09;;;;;;;47.47;17.87;;;;;;;-0.01;79.68;101625.70;5218518;55;1138830;-71
2022/03/08 00:06:16;;;;;;;52.77;17.43;;;;;;;0.06;80.53;101625.13;5208920;55;1140832;-73
2022/03/08 00:11:21;;;;;;;62.27;21.93;;;;;;;0.24;81.54;101631.33;5213743;55;1139211;-70
2022/03/08 00:16:27;;;;;;;61.47;21.17;;;;;;;0.49;81.82;101638.25;5217479;55;1138867;-69
2022/03/08 00:21:33;;;;;;;58.30;20.72;;;;;;;0.68;81.50;101637.02;5214066;55;1138810;-69
2022/03/08 00:26:39;;;;;;;80.23;24.13;;;;;;;0.78;81.09;101631.19;5218428;55;1138756;-70
2022/03/08 00:31:44;;;;;;;92.27;32.33;;;;;;;0.82;80.96;101625.90;5172398;55;1138785;-70
2022/03/08 00:36:51;;;;;;;109.77;35.07;;;;;;;0.80;80.51;101622.46;5055467;56;1138665;-69
2022/03/08 00:41:56;;;;;;;110.10;35.93;;;;;;;0.79;80.27;101617.28;5055415;56;1140838;-70
2022/03/08 00:47:02;;;;;;;113.12;41.65;;;;;;;0.77;80.23;101618.61;5081049;56;1140841;-69
2022/03/08 00:52:09;;;;;;;101.47;36.27;;;;;;;0.75;80.40;101624.31;5109685;55;1140924;-69
2022/03/08 00:57:15;;;;;;;92.00;32.03;;;;;;;0.70;80.20;101630.05;5109879;56;1140841;-68
2022/03/08 01:02:20;;;;;;;88.87;33.33;;;;;;;0.70;80.36;101632.66;5110996;56;1138705;-69
2022/03/08 01:07:27;;;;;;;94.45;34.05;;;;;;;0.70;80.42;101626.14;5111106;56;1138701;-70
2022/03/08 01:12:33;;;;;;;96.75;29.92;;;;;;;0.68;80.20;101633.12;5072110;56;1139111;-68
2022/03/08 01:17:40;;;;;;;113.63;34.50;;;;;;;0.64;80.36;101632.31;5022479;56;1138785;-70
2022/03/08 01:22:47;;;;;;;103.87;32.53;;;;;;;0.60;80.30;101637.19;5026757;56;1140875;-71
2022/03/08 01:27:55;;;;;;;115.67;34.47;;;;;;;0.53;80.42;101630.36;5088103;55;1140904;-67
2022/03/08 01:33:01;;;;;;;112.37;43.03;;;;;;;0.50;80.05;101630.41;5145794;55;1140988;-71
2022/03/08 01:38:06;;;;;;;104.27;39.00;;;;;;;0.20;79.17;101620.11;5131233;56;1140954;-70
2022/03/08 01:43:13;;;;;;;122.67;41.70;;;;;;;0.10;79.82;101617.27;5110752;55;1141127;-67
2022/03/08 01:48:18;;;;;;;101.73;32.43;;;;;;;0.02;79.79;101611.75;5101283;56;1140998;-68
2022/03/08 01:53:26;;;;;;;100.47;33.08;;;;;;;-0.32;80.27;101606.27;5105460;56;1141000;-69
2022/03/08 01:58:32;;;;;;;109.03;35.83;;;;;;;-0.55;80.73;101605.30;5115313;56;1143083;-69
2022/03/08 02:03:37;;;;;;;105.00;33.73;;;;;;;-0.48;81.49;101605.64;5125357;55;1143061;-69
2022/03/08 02:08:43;;;;;;;94.15;33.48;;;;;;;-0.36;81.98;101620.60;5205568;55;1143025;-69
2022/03/08 02:13:49;;;;;;;93.27;35.43;;;;;;;-0.27;81.99;101620.03;5205627;55;1141360;-70
2022/03/08 02:18:56;;;;;;;93.77;33.13;;;;;;;-0.17;81.95;101620.33;5205857;55;1140959;-70
2022/03/08 02:24:02;;;;;;;96.70;34.17;;;;;;;-0.10;81.66;101614.13;5205080;55;1176987;-70
2022/03/08 02:29:11;;;;;;;103.33;36.87;;;;;;;-0.08;81.43;101618.86;5199918;55;1141019;-69
2022/03/08 02:34:17;;;;;;;87.53;30.73;;;;;;;-0.08;81.32;101624.92;5004627;55;1143236;-68
2022/03/08 02:39:23;;;;;;;68.00;24.95;;;;;;;-0.10;81.14;101621.92;5095066;56;1140855;-68
2022/03/08 02:44:30;;;;;;;62.70;21.63;;;;;;;-0.12;80.93;101622.39;5074144;55;1141219;-68
2022/03/08 02:49:36;;;;;;;61.48;22.37;;;;;;;-0.17;80.79;101620.33;5052578;55;1141056;-69
2022/03/08 02:54:41;;;;;;;55.97;22.47;;;;;;;-0.21;80.97;101638.14;5058182;55;1141108;-69
2022/03/08 02:59:47;;;;;;;52.20;18.17;;;;;;;-0.25;80.83;101634.72;5094190;56;1141240;-70
2022/03/08 03:04:53;;;;;;;46.93;19.43;;;;;;;-0.27;80.89;101626.08;5097227;55;1141206;-70
2022/03/08 03:09:59;;;;;;;50.47;21.33;;;;;;;-0.35;80.78;101630.55;5079291;56;1140871;-69
2022/03/08 03:15:09;;;;;;;47.73;20.90;;;;;;;-0.36;81.05;101627.09;5106472;55;1141123;-70
2022/03/08 03:20:18;;;;;;;60.03;20.33;;;;;;;-0.40;81.37;101629.31;5106540;56;1140951;-67
2022/03/08 03:25:24;;;;;;;70.75;24.52;;;;;;;-0.41;81.29;101622.40;5105928;55;1141034;-69
2022/03/08 03:30:29;;;;;;;67.83;24.10;;;;;;;-0.42;81.19;101616.78;5106396;55;1141340;-71
2022/03/08 03:35:35;;;;;;;69.77;24.80;;;;;;;-0.42;81.15;101614.62;5124015;55;1141104;-68
2022/03/08 03:40:41;;;;;;;58.13;22.70;;;;;;;-0.48;80.74;101631.19;5113106;56;1140835;-71
2022/03/08 03:45:47;;;;;;;67.90;24.07;;;;;;;-0.50;80.89;101623.84;5111056;56;1141074;-69
2022/03/08 03:50:53;;;;;;;64.07;22.80;;;;;;;-0.50;80.85;101625.58;5118162;55;1140933;-71
2022/03/08 03:55:58;;;;;;;60.70;22.27;;;;;;;-0.54;80.85;101629.09;5116543;56;1141086;-69
2022/03/08 04:01:05;;;;;;;74.73;23.47;;;;;;;-0.57;80.96;101623.94;5119123;55;1141476;-70
2022/03/08 04:06:10;;;;;;;65.47;22.00;;;;;;;-0.59;80.94;101625.70;5108475;56;1140966;-70
2022/03/08 04:11:16;;;;;;;71.33;22.33;;;;;;;-0.69;80.49;101634.06;5106335;56;1141097;-69
2022/03/08 04:16:22;;;;;;;72.10;23.87;;;;;;;-0.69;80.64;101638.41;5172678;55;1141031;-70
2022/03/08 04:21:27;;;;;;;68.93;23.67;;;;;;;-0.71;80.65;101648.38;5192856;55;1141044;-71
2022/03/08 04:26:33;;;;;;;76.82;25.65;;;;;;;-0.77;80.52;101647.61;5192725;55;1141247;-67
2022/03/08 04:31:40;;;;;;;73.23;25.40;;;;;;;-0.90;79.65;101653.81;5124723;56;1141261;-71
2022/03/08 04:36:45;;;;;;;83.47;28.23;;;;;;;-1.01;80.24;101653.09;5019576;56;1140889;-68
2022/03/08 04:41:52;;;;;;;71.17;26.30;;;;;;;-1.02;80.76;101660.45;5074882;56;1140952;-69
2022/03/08 04:46:58;;;;;;;90.67;25.37;;;;;;;-1.08;80.77;101658.81;5055486;55;1141120;-71
2022/03/08 04:52:05;;;;;;;84.63;23.73;;;;;;;-1.13;80.77;101654.10;5019372;57;1140912;-68
2022/03/08 04:57:10;;;;;;;68.67;21.63;;;;;;;-1.11;80.87;101652.35;5028208;57;1140772;-70
2022/03/08 05:02:16;;;;;;;62.23;23.97;;;;;;;-1.14;80.48;101650.64;5026758;56;1140874;-71
2022/03/08 05:07:22;;;;;;;51.73;22.63;;;;;;;-1.17;80.73;101665.39;5062522;55;1140844;-68
2022/03/08 05:12:28;;;;;;;58.93;23.77;;;;;;;-1.18;80.91;101665.82;5106115;56;1147438;-68
2022/03/08 05:17:34;;;;;;;57.87;21.87;;;;;;;-1.20;80.84;101674.06;5036572;56;1140875;-70
2022/03/08 05:22:40;;;;;;;67.77;22.00;;;;;;;-1.23;80.89;101672.82;5073169;55;1140965;-70
2022/03/08 05:27:45;;;;;;;69.32;22.80;;;;;;;-1.22;81.04;101664.60;5082590;56;1140953;-71
2022/03/08 05:32:52;;;;;;;83.30;20.73;;;;;;;-1.22;81.02;101665.89;5091904;56;1140859;-69
2022/03/08 05:37:59;;;;;;;91.37;23.03;;;;;;;-1.22;80.97;101664.13;5117475;55;1140880;-68
2022/03/08 05:43:04;;;;;;;124.27;31.03;;;;;;;-1.26;80.44;101664.20;5075322;56;1140939;-69
2022/03/08 05:48:11;;;;;;;82.67;22.47;;;;;;;-1.39;80.39;101668.66;5034359;56;1142820;-70
2022/03/08 05:53:18;;;;;;;73.37;26.97;;;;;;;-1.42;80.90;101669.98;5115564;55;1140906;-70
2022/03/08 05:58:24;;;;;;;66.00;22.30;;;;;;;-1.37;81.43;101677.27;5006008;56;1140837;-68
2022/03/08 06:03:30;;;;;;;88.85;21.12;;;;;;;-1.31;82.08;101680.25;5009378;56;1140945;-70
2022/03/08 06:08:35;;;;;;;63.02;23.92;;;;;;;-1.17;82.51;101676.63;5139267;56;1140803;-70
2022/03/08 06:13:41;;;;;;;101.87;22.37;;;;;;;-0.94;83.49;101674.22;5155001;55;1140944;-69
2022/03/08 06:18:46;;;;;;;107.67;26.30;;;;;;;-0.65;83.86;101676.45;5133628;55;1142823;-69
2022/03/08 06:23:53;;;;;;;199.07;55.12;;;;;;;-0.36;84.27;101669.98;5080870;56;1143016;-68
2022/03/08 06:28:59;;;;;;;94.00;29.97;;;;;;;-0.12;84.34;101680.45;4949770;57;1142901;-70
2022/03/08 06:34:05;;;;;;;62.07;24.07;;;;;;;0.21;85.10;101682.11;5092901;56;1140828;-68
2022/03/08 06:39:10;;;;;;;42.37;18.37;;;;;;;0.38;83.77;101683.12;5111415;55;1138822;-70
2022/03/08 06:44:16;;;;;;;44.23;15.90;;;;;;;0.34;83.27;101683.17;5111810;56;1138782;-69
2022/03/08 06:49:23;;;;;;;42.80;16.44;;;;;;;0.43;84.42;101693.03;5041928;56;1138907;-71
2022/03/08 06:54:29;;;;;;;43.03;16.60;;;;;;;0.49;84.07;101689.86;5107897;56;1146477;-72
2022/03/08 06:59:35;;;;;;;72.40;20.57;;;;;;;0.44;84.22;101694.30;5143604;55;1138865;-71
2022/03/08 07:04:41;;;;;;;38.28;17.75;;;;;;;0.57;85.59;101694.50;5186770;55;1138821;-70
2022/03/08 07:09:47;;;;;;;36.60;17.60;;;;;;;0.75;86.08;101700.27;5176366;55;1138880;-71
2022/03/08 07:14:53;;;;;;;53.27;23.60;;;;;;;0.86;86.54;101704.38;5196446;55;1139066;-71
2022/03/08 07:19:58;;;;;;;169.93;57.67;;;;;;;0.89;86.76;101713.45;5080229;56;1138791;-72
2022/03/08 07:25:05;;;;;;;76.33;31.17;;;;;;;0.97;87.50;101715.45;5186013;55;1141025;-74
2022/03/08 07:30:12;;;;;;;57.10;22.27;;;;;;;1.40;90.02;101735.45;5108884;56;1139037;-69
2022/03/08 07:35:18;;;;;;;59.60;26.73;;;;;;;1.80;89.13;101728.10;5159681;55;1139154;-70
2022/03/08 07:40:25;;;;;;;68.83;26.67;;;;;;;1.80;88.07;101719.83;5151466;55;1138922;-69
2022/03/08 07:45:33;;;;;;;51.33;23.45;;;;;;;1.92;88.78;101710.87;5038694;56;1139084;-71
2022/03/08 07:50:39;;;;;;;71.77;26.80;;;;;;;2.02;88.83;101717.58;5159048;55;1138920;-68
2022/03/08 07:55:44;;;;;;;49.90;20.60;;;;;;;2.12;90.16;101715.19;5217655;55;1139222;-69
2022/03/08 08:00:50;;;;;;;60.00;25.13;;;;;;;2.42;91.07;101718.36;5198188;55;1138895;-69
2022/03/08 08:05:56;;;;;;;38.17;14.20;;;;;;;2.47;90.85;101709.94;5139426;56;1138792;-70
2022/03/08 08:11:02;;;;;;;29.43;10.13;;;;;;;2.85;92.43;101709.86;5186805;55;1139001;-68
2022/03/08 08:16:08;;;;;;;23.05;8.35;;;;;;;3.10;91.88;101707.84;5162025;55;1138868;-69
2022/03/08 08:21:14;;;;;;;39.40;12.53;;;;;;;3.24;91.27;101717.91;5040892;57;1136780;-70
2022/03/08 08:26:20;;;;;;;30.10;12.00;;;;;;;3.69;92.72;101720.08;5042571;56;1138890;-69
2022/03/08 08:31:28;;;;;;;15.17;6.27;;;;;;;4.18;92.77;101718.98;5074035;56;1138864;-70
2022/03/08 08:36:34;;;;;;;12.88;4.97;;;;;;;4.31;90.22;101698.48;5108962;55;1137155;-68
2022/03/08 08:41:39;;;;;;;12.35;4.08;;;;;;;4.53;91.14;101701.26;5030692;56;1136858;-68
2022/03/08 08:46:48;;;;;;;11.07;5.07;;;;;;;4.50;88.12;101702.21;5068731;56;1136723;-71
2022/03/08 08:51:55;;;;;;;16.00;5.83;;;;;;;4.54;89.57;101699.90;5056662;55;1136923;-69
2022/03/08 08:57:01;;;;;;;7.70;4.07;;;;;;;4.86;89.79;101713.66;5108115;56;1136843;-69
2022/03/08 09:02:09;;;;;;;4.37;3.13;;;;;;;5.07;86.71;101698.47;5127995;55;1134809;-69
2022/03/08 09:07:14;;;;;;;5.20;2.80;;;;;;;5.00;84.86;101706.62;5111551;55;1134807;-69
2022/03/08 09:12:20;;;;;;;4.93;2.53;;;;;;;4.97;84.93;101692.30;4920010;58;1134781;-69
2022/03/08 09:17:26;;;;;;;7.30;2.55;;;;;;;5.04;85.19;101682.84;4894847;57;1134895;-71
2022/03/08 09:22:32;;;;;;;5.92;3.12;;;;;;;5.28;84.24;101679.79;4889494;57;1134814;-70
2022/03/08 09:27:38;;;;;;;2.27;1.95;;;;;;;5.55;82.85;101689.24;4921234;57;1134560;-70
2022/03/08 09:32:44;;;;;;;4.62;2.52;;;;;;;5.66;82.05;101693.61;4954502;57;1135089;-69
2022/03/08 09:37:50;;;;;;;6.80;2.67;;;;;;;5.72;80.96;101685.97;4957029;57;1134657;-70
2022/03/08 09:42:55;;;;;;;4.67;3.30;;;;;;;6.02;82.42;101672.58;5052787;57;1134705;-71
2022/03/08 09:48:03;;;;;;;4.53;2.97;;;;;;;6.24;80.74;101680.00;5057162;56;1134722;-69
2022/03/08 09:53:12;;;;;;;9.67;4.50;;;;;;;6.29;77.05;101670.98;5052558;57;1134741;-68
2022/03/08 09:58:20;;;;;;;10.93;4.87;;;;;;;6.25;77.81;101668.58;5039676;57;1134747;-69
2022/03/08 10:03:39;;;;;;;12.07;5.58;;;;;;;6.26;76.88;101656.66;4989788;57;1136914;-71
2022/03/08 10:08:45;;;;;;;12.57;5.73;;;;;;;6.23;76.12;101653.33;5129430;55;1136624;-70
2022/03/08 10:13:53;;;;;;;9.33;4.67;;;;;;;6.19;76.03;101650.42;5184688;55;1136653;-70
2022/03/08 10:19:02;;;;;;;8.67;4.97;;;;;;;6.23;74.53;101641.51;5204721;55;1134875;-69
2022/03/08 10:24:20;;;;;;;9.90;4.90;;;;;;;6.20;73.58;101632.44;5080999;56;1134516;-70
2022/03/08 10:29:36;;;;;;;12.50;4.73;;;;;;;6.23;74.39;101621.81;5218838;55;1152898;-72
2022/03/08 10:34:43;;;;;;;8.60;3.80;;;;;;;6.39;75.34;101624.19;5156281;55;1136599;-70
2022/03/08 10:39:53;;;;;;;7.13;3.60;;;;;;;6.49;71.50;101622.00;5190123;55;1134535;-70
2022/03/08 10:45:11;;;;;;;5.90;3.00;;;;;;;6.53;72.65;101615.25;5212640;55;1134654;-68
2022/03/08 10:50:19;;;;;;;5.40;3.10;;;;;;;6.59;70.89;101621.53;5219194;55;1134698;-69
2022/03/08 10:55:31;;;;;;;6.20;3.17;;;;;;;6.71;70.21;101599.14;5218401;55;1134622;-69
2022/03/08 11:00:44;;;;;;;4.40;2.70;;;;;;;6.85;69.17;101588.00;5219011;55;1134641;-69
2022/03/08 11:05:56;;;;;;;5.63;2.70;;;;;;;6.98;69.56;101585.20;5218579;55;1134667;-70
2022/03/08 11:11:01;;;;;;;4.80;2.63;;;;;;;7.09;67.22;101582.92;5127569;55;1134887;-70
2022/03/08 11:16:08;;;;;;;9.97;2.70;;;;;;;7.15;67.17;101572.13;5089377;55;1134822;-69
2022/03/08 11:21:17;;;;;;;6.33;2.70;;;;;;;7.38;66.52;101569.25;5074693;55;1134791;-69
2022/03/08 11:26:25;;;;;;;4.93;3.70;;;;;;;7.38;65.34;101567.08;5102054;55;1134693;-69
2022/03/08 11:31:35;;;;;;;6.50;3.53;;;;;;;7.48;67.24;101562.25;5184250;55;1134545;-73
2022/03/08 11:37:00;;;;;;;4.20;2.83;;;;;;;7.77;66.86;101568.27;5143992;55;1134610;-72
2022/03/08 11:42:28;;;;;;;7.27;4.10;;;;;;;7.96;68.26;101561.14;5218369;55;1134511;-72
2022/03/08 11:47:44;;;;;;;6.77;3.37;;;;;;;8.19;67.04;101554.72;5218271;55;1138413;-70
2022/03/08 11:53:06;;;;;;;6.80;3.23;;;;;;;8.40;65.79;101552.81;5218152;55;1135328;-70
2022/03/08 11:58:20;;;;;;;4.20;3.00;;;;;;;8.58;66.94;101543.05;5111054;55;1134711;-72
2022/03/08 12:03:30;;;;;;;10.20;4.60;;;;;;;8.63;65.64;101537.93;5051624;56;1135117;-70
2022/03/08 12:08:42;;;;;;;8.93;3.67;;;;;;;8.75;66.53;101541.22;4959086;57;1136678;-71
2022/03/08 12:13:52;;;;;;;6.12;3.45;;;;;;;8.94;66.13;101538.45;5051428;56;1134596;-70
2022/03/08 12:19:00;;;;;;;13.23;4.13;;;;;;;9.14;67.02;101533.41;5048854;56;1134745;-69
2022/03/08 12:24:22;;;;;;;7.63;4.17;;;;;;;9.21;62.72;101529.47;5050522;56;1136875;-69
2022/03/08 12:29:53;;;;;;;11.73;4.80;;;;;;;9.28;64.42;101526.04;5043978;56;1134622;-69
2022/03/08 12:35:08;;;;;;;19.23;8.87;;;;;;;9.43;62.43;101525.17;4981999;57;1136766;-71
2022/03/08 12:40:22;;;;;;;4.90;3.77;;;;;;;9.59;64.74;101526.47;5019685;57;1136744;-72
2022/03/08 12:45:43;;;;;;;7.53;4.13;;;;;;;9.57;62.75;101532.30;4943068;56;1134790;-71
2022/03/08 12:50:55;;;;;;;8.97;4.60;;;;;;;9.60;62.31;101536.09;4953452;58;1134666;-72
2022/03/08 12:56:05;;;;;;;9.77;4.03;;;;;;;9.71;62.09;101535.86;4945136;58;1136830;-69
2022/03/08 13:01:14;;;;;;;5.80;2.92;;;;;;;9.92;62.90;101532.45;4857080;59;1137077;-70
2022/03/08 13:06:20;;;;;;;5.20;3.13;;;;;;;9.90;59.83;101524.22;4934619;58;1136990;-69
2022/03/08 13:11:28;;;;;;;8.10;3.93;;;;;;;9.99;62.52;101516.59;5032568;56;1136728;-69
2022/03/08 13:16:38;;;;;;;14.47;4.40;;;;;;;10.12;60.62;101513.59;5183539;55;1251947;-70
2022/03/08 13:21:43;;;;;;;7.62;4.42;;;;;;;10.18;61.03;101507.09;5104486;56;1140903;-70
2022/03/08 13:26:50;;;;;;;9.47;3.77;;;;;;;10.33;59.42;101504.03;5144619;55;1138911;-69
2022/03/08 13:31:55;;;;;;;6.63;3.13;;;;;;;10.26;60.87;101502.69;5145208;55;1139056;-68
2022/03/08 13:37:02;;;;;;;8.97;2.80;;;;;;;10.47;61.22;101514.61;5098278;56;1138983;-70
2022/03/08 13:42:10;;;;;;;12.80;3.10;;;;;;;10.71;61.99;101510.44;5032071;56;1139024;-69
2022/03/08 13:47:16;;;;;;;3.77;2.10;;;;;;;10.85;59.65;101501.63;5033152;56;1141043;-70
2022/03/08 13:52:25;;;;;;;3.87;2.63;;;;;;;10.84;57.81;101496.00;5033120;56;1138911;-69
2022/03/08 13:57:31;;;;;;;3.92;2.80;;;;;;;10.43;56.29;101495.91;4989217;57;1139068;-71
2022/03/08 14:02:37;;;;;;;4.58;2.80;;;;;;;10.32;59.02;101499.69;4956343;57;1139051;-69
2022/03/08 14:07:43;;;;;;;6.22;3.58;;;;;;;10.29;58.42;101495.90;4970692;57;1139030;-70
2022/03/08 14:12:48;;;;;;;4.83;2.92;;;;;;;10.36;58.82;101495.92;4994507;56;1138703;-70
2022/03/08 14:18:13;;;;;;;5.00;3.13;;;;;;;10.48;58.23;101497.80;5073692;56;1138933;-71
2022/03/08 14:23:18;;;;;;;;;;;;;;;10.56;58.40;101487.59;5072263;56;1139062;-71
2022/03/08 14:28:45;;;;;;;7.90;4.00;;;;;;;10.66;58.76;101491.85;5125159;55;976215;-71
2022/03/08 14:34:16;;;;;;;10.43;3.83;;;;;;;10.56;58.00;101490.23;5053692;56;1136815;-71
2022/03/08 14:39:44;;;;;;;7.50;3.53;;;;;;;10.47;59.58;101489.02;4891382;58;1140829;-73
2022/03/08 14:44:56;;;;;;;27.00;20.75;;;;;;;10.62;59.72;101494.30;4916835;57;1138980;-70
2022/03/08 14:50:04;;;;;;;;;;;;;;;10.64;58.09;101482.69;4982691;57;1142890;-73
2022/03/08 14:55:13;;;;;;;182.23;95.53;;;;;;;10.76;58.79;101484.55;4961410;57;976308;-71
2022/03/08 15:00:19;;;;;;;59.93;37.87;;;;;;;10.86;57.98;101489.62;4988194;56;1143148;-71
2022/03/08 15:05:25;;;;;;;23.37;14.33;;;;;;;10.83;59.04;101482.38;5024334;57;1142871;-72
2022/03/08 15:10:31;;;;;;;12.37;5.80;;;;;;;10.87;59.05;101474.13;5018463;57;1142835;-69
2022/03/08 15:15:36;;;;;;;22.53;8.93;;;;;;;10.85;60.34;101473.38;4942761;57;1140958;-72
2022/03/08 15:20:42;;;;;;;21.00;5.47;;;;;;;10.87;60.29;101471.48;4961962;57;1141003;-72
2022/03/08 15:25:47;;;;;;;10.80;4.27;;;;;;;11.00;59.92;101471.55;5052387;56;1140784;-73
2022/03/08 15:30:53;;;;;;;8.53;3.17;;;;;;;11.16;60.10;101461.67;5030222;57;1140770;-72
2022/03/08 15:36:01;;;;;;;178.33;132.70;;;;;;;11.26;58.38;101468.55;5042378;57;1138933;-71
2022/03/08 15:41:07;;;;;;;77.37;46.97;;;;;;;11.16;59.11;101451.55;5001658;57;1147186;-69
2022/03/08 15:46:16;;;;;;;124.67;58.60;;;;;;;11.09;58.42;101470.97;5044926;56;1143019;-70
2022/03/08 15:51:24;;;;;;;97.50;42.93;;;;;;;10.75;58.41;101472.74;4987019;57;1145285;-69
2022/03/08 15:56:31;;;;;;;51.88;27.27;;;;;;;10.44;59.69;101480.41;4989139;57;1143262;-69
2022/03/08 16:01:37;;;;;;;35.05;12.93;;;;;;;10.33;60.77;101481.08;5052182;56;1142995;-73
2022/03/08 16:06:43;;;;;;;13.57;6.57;;;;;;;10.26;60.88;101481.06;4983625;57;1143054;-67
2022/03/08 16:11:48;;;;;;;130.10;59.20;;;;;;;10.16;60.99;101471.50;4996627;57;1140942;-73
2022/03/08 16:16:55;;;;;;;112.70;35.47;;;;;;;10.12;61.35;101465.16;5044168;56;1145233;-68
2022/03/08 16:22:00;;;;;;;79.37;21.03;;;;;;;10.12;62.21;101467.34;4946646;57;1145090;-73
2022/03/08 16:27:08;;;;;;;82.23;24.63;;;;;;;10.11;62.01;101460.81;4964111;57;1143088;-72
2022/03/08 16:32:14;;;;;;;99.43;40.30;;;;;;;10.02;62.55;101464.88;4960046;57;1143492;-71
2022/03/08 16:37:20;;;;;;;126.70;50.70;;;;;;;9.91;62.80;101467.33;5012912;57;1142941;-72
2022/03/08 16:42:26;;;;;;;130.40;48.93;;;;;;;9.84;63.00;101470.78;4991971;57;1140954;-68
2022/03/08 16:47:32;;;;;;;143.70;62.50;;;;;;;9.84;63.43;101466.83;5050723;57;1140817;-73
2022/03/08 16:52:41;;;;;;;128.80;51.80;;;;;;;9.84;63.76;101481.83;4966755;57;1140885;-69
2022/03/08 16:57:47;;;;;;;108.17;44.67;;;;;;;9.85;63.98;101488.81;4966640;57;1141168;-71
2022/03/08 17:02:54;;;;;;;95.20;34.53;;;;;;;9.83;64.06;101492.02;4965557;57;1140835;-71
2022/03/08 17:08:00;;;;;;;98.47;36.30;;;;;;;9.73;64.29;101490.86;4971290;57;1139038;-69
2022/03/08 17:13:06;;;;;;;196.40;81.00;;;;;;;9.57;64.10;101496.66;4971525;57;1138955;-71
2022/03/08 17:18:12;;;;;;;146.00;60.50;;;;;;;9.33;64.38;101505.02;4939203;57;1141011;-71
2022/03/08 17:23:18;;;;;;;85.73;31.37;;;;;;;9.17;64.86;101508.14;5010474;57;1140920;-70
2022/03/08 17:28:25;;;;;;;87.35;33.58;;;;;;;9.06;65.25;101512.70;5003222;57;1138881;-69
2022/03/08 17:33:32;;;;;;;96.87;34.30;;;;;;;9.02;65.33;101514.27;4996272;57;1138797;-71
2022/03/08 17:38:38;;;;;;;123.80;50.23;;;;;;;8.79;65.36;101516.39;5016574;57;1138973;-69
2022/03/08 17:43:44;;;;;;;169.50;63.40;;;;;;;8.50;65.14;101518.89;5135808;55;1140917;-69
2022/03/08 17:48:50;;;;;;;187.22;70.22;;;;;;;8.22;65.40;101526.05;5132489;55;1141238;-68
2022/03/08 17:53:55;;;;;;;193.67;81.80;;;;;;;7.81;66.01;101526.81;5106601;56;1141161;-69
2022/03/08 17:59:01;;;;;;;189.97;69.57;;;;;;;7.56;66.80;101529.81;5002211;57;1140958;-70
2022/03/08 18:04:08;;;;;;;177.80;70.80;;;;;;;7.59;67.59;101530.52;5100135;56;1140841;-68
2022/03/08 18:09:14;;;;;;;172.03;68.73;;;;;;;7.53;67.89;101543.97;5092481;56;1140848;-69
2022/03/08 18:14:21;;;;;;;185.07;80.60;;;;;;;7.52;68.32;101530.42;5106683;55;1140983;-70
2022/03/08 18:19:27;;;;;;;180.93;69.13;;;;;;;7.51;68.61;101531.81;5108603;55;1140858;-69
2022/03/08 18:24:33;;;;;;;222.87;87.67;;;;;;;7.56;68.95;101528.50;5130436;55;1140831;-69
2022/03/08 18:29:39;;;;;;;197.00;78.97;;;;;;;7.60;69.07;101529.60;5138339;56;1140919;-70
2022/03/08 18:34:45;;;;;;;186.80;72.30;;;;;;;7.58;69.20;101521.39;5103128;56;1141194;-71
2022/03/08 18:39:51;;;;;;;153.40;62.50;;;;;;;7.52;68.96;101519.04;5092045;55;1244374;-70
2022/03/08 18:44:57;;;;;;;142.27;58.30;;;;;;;7.41;68.83;101512.99;5120872;55;1140949;-69
2022/03/08 18:50:03;;;;;;;162.37;61.50;;;;;;;7.36;68.86;101510.58;5140680;55;1141085;-70
2022/03/08 18:55:10;;;;;;;159.13;63.40;;;;;;;7.14;68.56;101512.55;5104146;55;1140906;-71
2022/03/08 19:00:18;;;;;;;225.13;81.80;;;;;;;6.90;68.92;101504.47;5093913;55;1140834;-69
2022/03/08 19:05:24;;;;;;;229.10;91.97;;;;;;;6.52;69.38;101519.39;5111202;55;1141136;-71
2022/03/08 19:10:31;;;;;;;251.60;95.28;;;;;;;6.47;70.16;101523.98;5140451;55;1140947;-69
2022/03/08 19:15:37;;;;;;;221.10;87.13;;;;;;;6.36;70.48;101528.41;5140260;55;1140834;-70
2022/03/08 19:20:43;;;;;;;241.83;92.53;;;;;;;6.11;69.93;101534.34;5119394;55;1140826;-69
2022/03/08 19:25:49;;;;;;;238.60;93.62;;;;;;;5.93;70.72;101539.45;5108147;55;1140919;-70
2022/03/08 19:30:55;;;;;;;199.80;72.47;;;;;;;5.90;71.16;101542.20;5068784;56;1140715;-71
2022/03/08 19:36:01;;;;;;;217.00;83.07;;;;;;;5.78;71.05;101540.06;5159190;55;1140779;-70
2022/03/08 19:41:07;;;;;;;285.77;101.07;;;;;;;5.72;71.87;101538.13;5110975;56;1140842;-72
2022/03/08 19:46:14;;;;;;;241.97;88.37;;;;;;;5.65;71.83;101535.75;5120870;56;1142869;-70
2022/03/08 19:51:20;;;;;;;476.40;164.40;;;;;;;5.53;71.61;101542.81;5120914;56;1141059;-70
2022/03/08 19:56:28;;;;;;;359.30;123.30;;;;;;;5.17;71.53;101542.98;5065791;56;1143016;-68
2022/03/08 20:01:37;;;;;;;169.50;66.47;;;;;;;4.87;72.02;101544.55;5100292;56;1142936;-69
2022/03/08 20:06:42;;;;;;;178.67;70.13;;;;;;;4.48;72.79;101544.69;4964777;56;1140810;-70
2022/03/08 20:11:49;;;;;;;142.43;54.93;;;;;;;4.39;73.52;101547.64;4971612;56;1140999;-70
2022/03/08 20:16:55;;;;;;;174.77;62.20;;;;;;;4.54;74.24;101552.34;5085154;56;1140743;-69
2022/03/08 20:22:01;;;;;;;140.07;54.63;;;;;;;4.76;74.51;101551.08;5076455;56;1141088;-70
2022/03/08 20:27:08;;;;;;;122.58;43.02;;;;;;;4.67;73.46;101554.91;5120953;56;1141092;-71
2022/03/08 20:32:14;;;;;;;117.05;49.88;;;;;;;4.29;73.43;101564.57;5037183;56;1140911;-69
2022/03/08 20:37:19;;;;;;;131.43;55.43;;;;;;;3.92;74.13;101563.23;5075047;56;1140893;-71
2022/03/08 20:42:26;;;;;;;143.40;62.93;;;;;;;4.04;75.47;101558.88;5089535;56;1141053;-70
2022/03/08 20:47:32;;;;;;;183.73;72.47;;;;;;;4.19;75.99;101571.45;5121003;56;1140988;-71
2022/03/08 20:52:39;;;;;;;281.85;93.10;;;;;;;4.33;76.19;101566.19;5125191;56;1140909;-71
2022/03/08 20:57:46;;;;;;;246.95;84.67;;;;;;;4.42;75.83;101574.59;4971316;56;1141105;-69
2022/03/08 21:02:58;;;;;;;290.92;98.55;;;;;;;4.41;75.17;101565.47;5012706;57;1140858;-68
2022/03/08 21:07:59;;;;;;;280.00;98.67;;;;;;;4.28;74.74;101562.41;4975074;57;1141106;-70
2022/03/08 21:13:05;;;;;;;246.97;86.17;;;;;;;4.23;75.13;101563.05;5032592;57;1140952;-68
2022/03/08 21:18:11;;;;;;;245.57;85.10;;;;;;;4.20;75.07;101571.00;5066414;56;1141098;-69
2022/03/08 21:23:17;;;;;;;268.97;87.67;;;;;;;4.18;75.04;101576.73;5087971;56;1141004;-69
2022/03/08 21:28:23;;;;;;;245.87;76.70;;;;;;;4.07;74.97;101569.70;5086548;56;1140884;-69
2022/03/08 21:33:30;;;;;;;235.13;78.57;;;;;;;3.91;74.54;101569.82;5074809;56;1140898;-69
2022/03/08 21:38:36;;;;;;;163.57;62.07;;;;;;;3.74;75.01;101562.07;5116043;56;1140914;-69
2022/03/08 21:43:43;;;;;;;183.30;65.93;;;;;;;3.63;74.67;101568.11;5116207;56;1140983;-70
2022/03/08 21:48:50;;;;;;;160.37;60.17;;;;;;;3.63;75.98;101562.87;5113567;56;1140918;-69
2022/03/08 21:53:56;;;;;;;82.05;36.48;;;;;;;3.69;76.25;101566.59;5198694;55;1141078;-70
2022/03/08 21:59:03;;;;;;;101.20;42.73;;;;;;;3.59;75.55;101567.80;5126366;56;1138763;-70
2022/03/08 22:04:08;;;;;;;97.10;41.70;;;;;;;3.48;75.82;101565.98;5126455;56;1140890;-71
2022/03/08 22:09:15;;;;;;;129.33;53.40;;;;;;;3.33;75.30;101572.55;5126728;56;1138888;-69
2022/03/08 22:14:22;;;;;;;171.10;62.53;;;;;;;3.07;75.33;101571.15;5126519;56;1141106;-71
2022/03/08 22:19:28;;;;;;;237.40;87.63;;;;;;;3.06;76.50;101578.13;5126137;56;1140941;-68
2022/03/08 22:24:33;;;;;;;242.87;92.57;;;;;;;3.10;76.98;101583.69;5126541;56;1140847;-70
2022/03/08 22:29:39;;;;;;;258.60;87.83;;;;;;;3.16;76.79;101591.81;5126624;56;1140960;-70
2022/03/08 22:34:44;;;;;;;214.23;79.03;;;;;;;3.20;76.71;101594.74;5126878;56;1146110;-69
2022/03/08 22:39:50;;;;;;;199.27;77.08;;;;;;;3.17;76.46;101595.69;5126510;56;1140838;-70
2022/03/08 22:44:58;;;;;;;188.40;68.85;;;;;;;3.16;76.54;101603.13;5126677;56;1141094;-68
2022/03/08 22:55:28;;;;;;;196.85;69.77;;;;;;;2.82;75.85;101611.07;5093346;55;1140874;-70
2022/03/08 23:00:39;;;;;;;168.33;58.07;;;;;;;2.81;76.65;101609.80;5136821;55;1140782;-69